createdAt,value
2018-05-12T00:00:36.025Z,17.95
2018-05-12T00:01:36.012Z,17.94
2018-05-12T00:02:35.943Z,17.87
2018-05-12T00:03:35.928Z,17.95
2018-05-12T00:04:35.912Z,17.95
2018-05-12T00:05:35.902Z,17.90
2018-05-12T00:06:35.984Z,17.97
2018-05-12T00:07:35.865Z,17.93
2018-05-12T00:08:35.867Z,17.90
2018-05-12T00:09:35.836Z,17.91
2018-05-12T00:10:35.834Z,17.90
2018-05-12T00:11:35.803Z,17.93
2018-05-12T00:12:35.785Z,17.86
2018-05-12T00:13:35.775Z,17.95
2018-05-12T00:14:35.759Z,17.88
2018-05-12T00:15:35.746Z,17.94
2018-05-12T00:16:35.727Z,17.93
2018-05-12T00:17:35.712Z,17.91
2018-05-12T00:18:35.700Z,17.95
2018-05-12T00:19:36.187Z,17.87
2018-05-12T00:20:35.661Z,17.93
2018-05-12T00:21:35.646Z,17.90
2018-05-12T00:22:35.635Z,17.93
2018-05-12T00:23:35.618Z,17.91
2018-05-12T00:24:35.604Z,17.88
2018-05-12T00:25:35.585Z,17.95
2018-05-12T00:26:35.570Z,17.98
2018-05-12T00:27:35.558Z,17.88
2018-05-12T00:28:35.537Z,17.93
2018-05-12T00:29:35.528Z,17.94
2018-05-12T00:30:35.508Z,17.90
2018-05-12T00:31:35.498Z,17.86
2018-05-12T00:32:35.475Z,17.95
2018-05-12T00:33:35.463Z,17.87
2018-05-12T00:34:35.444Z,17.87
2018-05-12T00:35:35.430Z,17.84
2018-05-12T00:36:35.423Z,17.78
2018-05-12T00:37:35.396Z,17.90
2018-05-12T00:38:35.384Z,17.80
2018-05-12T00:39:35.369Z,17.84
2018-05-12T00:40:35.352Z,17.82
2018-05-12T00:41:35.338Z,17.79
2018-05-12T00:42:35.321Z,17.80
2018-05-12T00:43:35.306Z,17.76
2018-05-12T00:44:35.289Z,17.76
2018-05-12T00:45:35.287Z,17.76
2018-05-12T00:46:35.267Z,17.76
2018-05-12T00:47:35.243Z,17.69
2018-05-12T00:48:35.226Z,17.73
2018-05-12T00:49:35.213Z,17.78
2018-05-12T00:50:35.198Z,17.71
2018-05-12T00:51:35.203Z,17.76
2018-05-12T00:52:35.169Z,17.76
2018-05-12T00:53:35.154Z,17.71
2018-05-12T00:54:35.138Z,17.80
2018-05-12T00:55:35.119Z,17.80
2018-05-12T00:56:35.105Z,17.66
2018-05-12T00:57:35.099Z,17.72
2018-05-12T00:58:35.076Z,17.73
2018-05-12T00:59:35.065Z,17.71
2018-05-12T01:00:35.040Z,17.69
2018-05-12T01:01:35.033Z,17.66
2018-05-12T01:02:35.007Z,17.72
2018-05-12T01:03:34.999Z,17.66
2018-05-12T01:04:34.977Z,17.66
2018-05-12T01:05:34.988Z,17.66
2018-05-12T01:06:34.947Z,17.69
2018-05-12T01:07:34.950Z,17.69
2018-05-12T01:08:34.915Z,17.65
2018-05-12T01:09:34.903Z,17.66
2018-05-12T01:10:34.888Z,17.57
2018-05-12T01:11:34.871Z,17.72
2018-05-12T01:12:34.854Z,17.68
2018-05-12T01:13:34.929Z,17.59
2018-05-12T01:14:34.827Z,17.65
2018-05-12T01:15:34.808Z,17.57
2018-05-12T01:16:34.828Z,17.57
2018-05-12T01:17:34.786Z,17.57
2018-05-12T01:18:34.841Z,17.59
2018-05-12T01:19:34.751Z,17.54
2018-05-12T01:20:35.247Z,17.50
2018-05-12T01:21:34.728Z,17.57
2018-05-12T01:22:34.698Z,17.49
2018-05-12T01:23:34.748Z,17.57
2018-05-12T01:24:34.666Z,17.57
2018-05-12T01:25:34.677Z,17.50
2018-05-12T01:26:34.682Z,17.49
2018-05-12T01:27:34.650Z,17.47
2018-05-12T01:28:34.608Z,17.42
2018-05-12T01:29:34.588Z,17.44
2018-05-12T01:30:34.576Z,17.44
2018-05-12T01:31:34.606Z,17.37
2018-05-12T01:32:34.540Z,17.35
2018-05-12T01:33:34.528Z,17.41
2018-05-12T01:34:34.512Z,17.42
2018-05-12T01:35:34.499Z,17.35
2018-05-12T01:36:34.477Z,17.44
2018-05-12T01:37:34.462Z,17.34
2018-05-12T01:38:34.446Z,17.37
2018-05-12T01:39:34.505Z,17.37
2018-05-12T01:40:34.421Z,17.35
2018-05-12T01:41:34.400Z,17.41
2018-05-12T01:42:34.383Z,17.34
2018-05-12T01:43:34.392Z,17.39
2018-05-12T01:44:35.075Z,17.37
2018-05-12T01:45:34.335Z,17.35
2018-05-12T01:46:34.332Z,17.34
2018-05-12T01:47:34.305Z,17.34
2018-05-12T01:48:34.290Z,17.39
2018-05-12T01:49:34.272Z,17.37
2018-05-12T01:50:34.258Z,17.35
2018-05-12T01:51:34.241Z,17.37
2018-05-12T01:52:34.224Z,17.37
2018-05-12T01:53:34.215Z,17.34
2018-05-12T01:54:34.197Z,17.38
2018-05-12T01:55:34.193Z,17.34
2018-05-12T01:56:34.160Z,17.42
2018-05-12T01:57:34.148Z,17.31
2018-05-12T01:58:34.131Z,17.39
2018-05-12T01:59:34.127Z,17.32
2018-05-12T02:00:34.099Z,17.37
2018-05-12T02:01:34.083Z,17.39
2018-05-12T02:02:34.069Z,17.34
2018-05-12T02:03:34.051Z,17.38
2018-05-12T02:04:34.037Z,17.30
2018-05-12T02:05:34.019Z,17.34
2018-05-12T02:06:34.004Z,17.38
2018-05-12T02:07:33.989Z,17.34
2018-05-12T02:08:33.971Z,17.34
2018-05-12T02:09:33.958Z,17.34
2018-05-12T02:10:33.939Z,17.31
2018-05-12T02:11:33.928Z,17.31
2018-05-12T02:12:33.910Z,17.28
2018-05-12T02:13:33.898Z,17.31
2018-05-12T02:14:33.885Z,17.27
2018-05-12T02:15:33.864Z,17.32
2018-05-12T02:16:33.850Z,17.28
2018-05-12T02:17:33.828Z,17.20
2018-05-12T02:18:33.815Z,17.20
2018-05-12T02:19:33.803Z,17.22
2018-05-12T02:20:33.781Z,17.22
2018-05-12T02:21:33.769Z,17.17
2018-05-12T02:22:33.747Z,17.20
2018-05-12T02:23:33.736Z,17.22
2018-05-12T02:24:33.718Z,17.12
2018-05-12T02:25:33.703Z,17.20
2018-05-12T02:26:33.688Z,17.23
2018-05-12T02:27:33.671Z,17.14
2018-05-12T02:28:33.655Z,17.20
2018-05-12T02:29:33.643Z,17.19
2018-05-12T02:30:33.626Z,17.20
2018-05-12T02:31:33.605Z,17.17
2018-05-12T02:32:33.592Z,17.20
2018-05-12T02:33:33.580Z,17.17
2018-05-12T02:34:33.559Z,17.12
2018-05-12T02:35:33.542Z,17.10
2018-05-12T02:36:33.526Z,17.10
2018-05-12T02:37:33.518Z,17.13
2018-05-12T02:38:33.522Z,17.12
2018-05-12T02:39:33.486Z,17.14
2018-05-12T02:40:33.476Z,17.10
2018-05-12T02:41:33.447Z,17.10
2018-05-12T02:42:33.438Z,17.09
2018-05-12T02:43:33.418Z,17.02
2018-05-12T02:44:33.400Z,17.02
2018-05-12T02:45:33.386Z,17.02
2018-05-12T02:46:33.371Z,16.91
2018-05-12T02:47:33.359Z,16.97
2018-05-12T02:48:33.354Z,16.99
2018-05-12T02:49:33.614Z,16.83
2018-05-12T02:50:33.305Z,16.95
2018-05-12T02:51:33.303Z,16.89
2018-05-12T02:52:33.268Z,16.83
2018-05-12T02:53:33.257Z,16.74
2018-05-12T02:54:33.237Z,16.74
2018-05-12T02:55:33.223Z,16.77
2018-05-12T02:56:33.205Z,16.82
2018-05-12T02:57:33.187Z,16.69
2018-05-12T02:58:33.179Z,16.64
2018-05-12T02:59:33.160Z,16.69
2018-05-12T03:00:33.146Z,16.61
2018-05-12T03:01:33.123Z,16.59
2018-05-12T03:02:33.111Z,16.51
2018-05-12T03:03:33.096Z,16.50
2018-05-12T03:04:33.080Z,16.43
2018-05-12T03:05:33.063Z,16.46
2018-05-12T03:06:33.043Z,16.44
2018-05-12T03:07:33.027Z,16.41
2018-05-12T03:08:33.020Z,16.46
2018-05-12T03:09:33.002Z,16.34
2018-05-12T03:10:32.981Z,16.40
2018-05-12T03:11:32.961Z,16.26
2018-05-12T03:12:32.954Z,16.31
2018-05-12T03:13:32.933Z,16.28
2018-05-12T03:14:32.928Z,16.22
2018-05-12T03:15:32.896Z,16.22
2018-05-12T03:16:32.885Z,16.21
2018-05-12T03:17:32.867Z,16.16
2018-05-12T03:18:32.848Z,16.13
2018-05-12T03:19:32.842Z,16.08
2018-05-12T03:20:33.521Z,16.06
2018-05-12T03:21:32.803Z,16.00
2018-05-12T03:22:32.782Z,16.02
2018-05-12T03:23:32.765Z,15.99
2018-05-12T03:24:32.748Z,15.90
2018-05-12T03:25:32.742Z,15.87
2018-05-12T03:26:32.720Z,15.88
2018-05-12T03:27:32.699Z,15.83
2018-05-12T03:28:32.684Z,15.80
2018-05-12T03:29:32.665Z,15.73
2018-05-12T03:30:32.657Z,15.76
2018-05-12T03:31:32.635Z,15.80
2018-05-12T03:32:32.616Z,15.65
2018-05-12T03:33:32.599Z,15.67
2018-05-12T03:34:32.588Z,15.70
2018-05-12T03:35:32.570Z,15.63
2018-05-12T03:36:32.552Z,15.62
2018-05-12T03:37:32.533Z,15.63
2018-05-12T03:38:32.540Z,15.50
2018-05-12T03:39:32.509Z,15.57
2018-05-12T03:40:32.483Z,15.54
2018-05-12T03:41:32.467Z,15.52
2018-05-12T03:42:32.451Z,15.52
2018-05-12T03:43:32.435Z,15.52
2018-05-12T03:44:32.438Z,15.60
2018-05-12T03:45:32.404Z,15.52
2018-05-12T03:46:32.384Z,15.57
2018-05-12T03:47:32.370Z,15.54
2018-05-12T03:48:32.350Z,15.54
2018-05-12T03:49:32.332Z,15.55
2018-05-12T03:50:32.317Z,15.60
2018-05-12T03:51:32.301Z,15.50
2018-05-12T03:52:32.297Z,15.55
2018-05-12T03:53:32.278Z,15.43
2018-05-12T03:54:32.254Z,15.48
2018-05-12T03:55:32.243Z,15.45
2018-05-12T03:56:32.227Z,15.41
2018-05-12T03:57:32.201Z,15.47
2018-05-12T03:58:32.183Z,15.47
2018-05-12T03:59:32.170Z,15.47
2018-05-12T04:00:32.155Z,15.41
2018-05-12T04:01:32.131Z,15.45
2018-05-12T04:02:32.121Z,15.51
2018-05-12T04:03:32.100Z,15.43
2018-05-12T04:04:32.084Z,15.45
2018-05-12T04:05:32.118Z,15.39
2018-05-12T04:06:32.048Z,15.39
2018-05-12T04:07:32.039Z,15.33
2018-05-12T04:08:32.093Z,15.44
2018-05-12T04:09:31.999Z,15.43
2018-05-12T04:10:31.984Z,15.39
2018-05-12T04:11:31.976Z,15.41
2018-05-12T04:12:31.984Z,15.39
2018-05-12T04:13:31.931Z,15.43
2018-05-12T04:14:31.914Z,15.41
2018-05-12T04:15:31.897Z,15.47
2018-05-12T04:16:31.881Z,15.44
2018-05-12T04:17:31.864Z,15.52
2018-05-12T04:18:31.849Z,15.48
2018-05-12T04:19:31.830Z,15.48
2018-05-12T04:20:31.812Z,15.44
2018-05-12T04:21:31.798Z,15.48
2018-05-12T04:22:31.786Z,15.50
2018-05-12T04:23:31.763Z,15.43
2018-05-12T04:24:31.744Z,15.44
2018-05-12T04:25:31.728Z,15.43
2018-05-12T04:26:31.712Z,15.47
2018-05-12T04:27:31.695Z,15.41
2018-05-12T04:28:31.677Z,15.48
2018-05-12T04:29:31.661Z,15.43
2018-05-12T04:30:31.646Z,15.45
2018-05-12T04:31:31.627Z,15.47
2018-05-12T04:32:31.611Z,15.41
2018-05-12T04:33:31.594Z,15.44
2018-05-12T04:34:31.580Z,15.43
2018-05-12T04:35:31.564Z,15.41
2018-05-12T04:36:31.542Z,15.44
2018-05-12T04:37:31.530Z,15.45
2018-05-12T04:38:31.543Z,15.48
2018-05-12T04:39:31.498Z,15.44
2018-05-12T04:40:31.477Z,15.43
2018-05-12T04:41:31.462Z,15.45
2018-05-12T04:42:31.485Z,15.36
2018-05-12T04:43:31.472Z,15.43
2018-05-12T04:44:31.470Z,15.48
2018-05-12T04:45:31.409Z,15.47
2018-05-12T04:46:31.398Z,15.50
2018-05-12T04:47:31.396Z,15.44
2018-05-12T04:48:31.376Z,15.48
2018-05-12T04:49:31.361Z,15.45
2018-05-12T04:50:31.319Z,15.44
2018-05-12T04:51:31.294Z,15.43
2018-05-12T04:52:31.311Z,15.50
2018-05-12T04:53:31.307Z,15.47
2018-05-12T04:54:31.284Z,15.50
2018-05-12T04:55:31.248Z,15.54
2018-05-12T04:56:31.233Z,15.52
2018-05-12T04:57:31.235Z,15.57
2018-05-12T04:58:31.220Z,15.55
2018-05-12T04:59:31.187Z,15.54
2018-05-12T05:00:31.188Z,15.50
2018-05-12T05:01:31.123Z,15.62
2018-05-12T05:02:31.197Z,15.66
2018-05-12T05:03:31.152Z,15.62
2018-05-12T05:04:31.137Z,15.63
2018-05-12T05:05:31.093Z,15.63
2018-05-12T05:06:31.062Z,15.66
2018-05-12T05:07:31.039Z,15.67
2018-05-12T05:08:31.020Z,15.75
2018-05-12T05:09:31.030Z,15.72
2018-05-12T05:10:31.020Z,15.73
2018-05-12T05:11:30.956Z,15.84
2018-05-12T05:12:30.984Z,15.92
2018-05-12T05:13:30.957Z,15.92
2018-05-12T05:14:30.941Z,15.92
2018-05-12T05:15:30.931Z,15.98
2018-05-12T05:16:30.930Z,16.06
2018-05-12T05:17:30.916Z,16.05
2018-05-12T05:18:30.893Z,16.13
2018-05-12T05:19:30.852Z,16.24
2018-05-12T05:20:30.835Z,16.18
2018-05-12T05:21:30.793Z,16.22
2018-05-12T05:22:30.808Z,16.31
2018-05-12T05:23:30.760Z,16.26
2018-05-12T05:24:30.779Z,16.37
2018-05-12T05:25:30.746Z,16.32
2018-05-12T05:26:30.705Z,16.41
2018-05-12T05:27:30.737Z,16.40
2018-05-12T05:28:30.676Z,16.43
2018-05-12T05:29:30.678Z,16.55
2018-05-12T05:30:30.666Z,16.49
2018-05-12T05:31:30.711Z,16.51
2018-05-12T05:32:30.660Z,16.57
2018-05-12T05:33:30.617Z,16.61
2018-05-12T05:34:30.595Z,16.61
2018-05-12T05:35:30.564Z,16.64
2018-05-12T05:36:30.621Z,16.64
2018-05-12T05:37:30.528Z,16.72
2018-05-12T05:38:30.575Z,16.79
2018-05-12T05:39:30.514Z,16.82
2018-05-12T05:40:30.522Z,16.79
2018-05-12T05:41:30.484Z,16.86
2018-05-12T05:42:30.470Z,16.84
2018-05-12T05:43:30.450Z,16.89
2018-05-12T05:44:30.449Z,16.83
2018-05-12T05:45:30.423Z,16.91
2018-05-12T05:46:30.401Z,16.97
2018-05-12T05:47:30.364Z,17.02
2018-05-12T05:48:30.400Z,17.01
2018-05-12T05:49:30.367Z,17.07
2018-05-12T05:50:30.557Z,17.05
2018-05-12T05:51:30.571Z,17.09
2018-05-12T05:52:30.327Z,17.14
2018-05-12T05:53:30.292Z,17.17
2018-05-12T05:54:30.410Z,17.17
2018-05-12T05:55:30.261Z,17.19
2018-05-12T05:56:30.238Z,17.24
2018-05-12T05:57:30.285Z,17.31
2018-05-12T05:58:30.273Z,17.16
2018-05-12T05:59:30.184Z,17.24
2018-05-12T06:00:30.161Z,17.30
2018-05-12T06:01:30.160Z,17.32
2018-05-12T06:02:30.155Z,17.34
2018-05-12T06:03:30.173Z,17.28
2018-05-12T06:04:30.143Z,17.35
2018-05-12T06:05:30.130Z,17.31
2018-05-12T06:06:30.098Z,17.37
2018-05-12T06:07:30.069Z,17.41
2018-05-12T06:08:30.053Z,17.52
2018-05-12T06:09:30.036Z,17.39
2018-05-12T06:10:30.025Z,17.54
2018-05-12T06:11:30.006Z,17.59
2018-05-12T06:12:29.989Z,17.56
2018-05-12T06:13:29.965Z,17.68
2018-05-12T06:14:29.991Z,17.69
2018-05-12T06:15:29.979Z,17.75
2018-05-12T06:16:29.909Z,17.71
2018-05-12T06:17:29.918Z,17.68
2018-05-12T06:18:29.915Z,17.73
2018-05-12T06:19:29.891Z,17.79
2018-05-12T06:20:29.881Z,17.84
2018-05-12T06:21:29.895Z,17.79
2018-05-12T06:22:29.831Z,17.84
2018-05-12T06:23:29.817Z,17.84
2018-05-12T06:24:29.813Z,17.94
2018-05-12T06:25:29.837Z,17.93
2018-05-12T06:26:29.798Z,18.03
2018-05-12T06:27:29.803Z,17.97
2018-05-12T06:28:29.792Z,17.97
2018-05-12T06:29:29.731Z,17.98
2018-05-12T06:30:29.723Z,17.98
2018-05-12T06:31:29.661Z,18.06
2018-05-12T06:32:29.692Z,18.09
2018-05-12T06:33:29.645Z,18.09
2018-05-12T06:34:29.705Z,18.11
2018-05-12T06:35:29.597Z,18.15
2018-05-12T06:36:29.582Z,18.26
2018-05-12T06:37:29.589Z,18.13
2018-05-12T06:38:29.552Z,18.26
2018-05-12T06:39:29.536Z,18.34
2018-05-12T06:40:29.519Z,18.33
2018-05-12T06:41:29.504Z,18.27
2018-05-12T06:42:29.519Z,18.31
2018-05-12T06:43:29.535Z,18.37
2018-05-12T06:44:29.463Z,18.42
2018-05-12T06:45:29.456Z,18.34
2018-05-12T06:46:29.427Z,18.31
2018-05-12T06:47:29.411Z,18.41
2018-05-12T06:48:29.415Z,18.43
2018-05-12T06:49:29.427Z,18.42
2018-05-12T06:50:29.366Z,18.49
2018-05-12T06:51:29.350Z,18.45
2018-05-12T06:52:29.336Z,18.46
2018-05-12T06:53:29.318Z,18.48
2018-05-12T06:54:29.303Z,18.43
2018-05-12T06:55:29.289Z,18.61
2018-05-12T06:56:29.273Z,18.60
2018-05-12T06:57:29.285Z,18.57
2018-05-12T06:58:29.261Z,18.67
2018-05-12T06:59:29.237Z,18.64
2018-05-12T07:00:29.214Z,18.66
2018-05-12T07:01:29.217Z,18.74
2018-05-12T07:02:29.180Z,18.76
2018-05-12T07:03:29.174Z,18.74
2018-05-12T07:04:29.152Z,18.74
2018-05-12T07:05:29.132Z,18.85
2018-05-12T07:06:29.124Z,18.82
2018-05-12T07:07:29.101Z,18.83
2018-05-12T07:08:29.094Z,18.92
2018-05-12T07:09:29.074Z,18.92
2018-05-12T07:10:29.056Z,18.94
2018-05-12T07:11:29.062Z,18.89
2018-05-12T07:12:29.024Z,18.94
2018-05-12T07:13:29.013Z,19.04
2018-05-12T07:14:29.015Z,19.07
2018-05-12T07:15:28.981Z,19.01
2018-05-12T07:16:28.968Z,19.12
2018-05-12T07:17:28.951Z,19.12
2018-05-12T07:18:28.935Z,19.07
2018-05-12T07:19:28.924Z,19.17
2018-05-12T07:20:28.904Z,19.16
2018-05-12T07:21:28.943Z,19.17
2018-05-12T07:22:28.875Z,19.20
2018-05-12T07:23:28.901Z,19.23
2018-05-12T07:24:28.845Z,19.16
2018-05-12T07:25:28.831Z,19.26
2018-05-12T07:26:28.833Z,19.27
2018-05-12T07:27:28.833Z,19.27
2018-05-12T07:28:28.789Z,19.29
2018-05-12T07:29:29.688Z,19.35
2018-05-12T07:30:28.819Z,19.22
2018-05-12T07:31:28.777Z,19.27
2018-05-12T07:32:28.757Z,19.35
2018-05-12T07:33:29.058Z,19.34
2018-05-12T07:34:28.758Z,19.24
2018-05-12T07:35:28.705Z,19.29
2018-05-12T07:36:28.667Z,19.39
2018-05-12T07:37:28.667Z,19.29
2018-05-12T07:38:28.704Z,19.23
2018-05-12T07:39:28.622Z,19.20
2018-05-12T07:40:28.612Z,19.20
2018-05-12T07:41:28.635Z,19.22
2018-05-12T07:42:28.576Z,19.15
2018-05-12T07:43:28.562Z,19.22
2018-05-12T07:44:28.548Z,19.19
2018-05-12T07:45:28.583Z,19.16
2018-05-12T07:46:28.520Z,19.30
2018-05-12T07:47:28.542Z,19.35
2018-05-12T07:48:28.495Z,19.26
2018-05-12T07:49:28.477Z,19.27
2018-05-12T07:50:28.462Z,19.38
2018-05-12T07:51:28.445Z,19.32
2018-05-12T07:52:28.428Z,19.44
2018-05-12T07:53:28.450Z,19.38
2018-05-12T07:54:28.438Z,19.48
2018-05-12T07:55:28.385Z,19.45
2018-05-12T07:56:28.366Z,19.57
2018-05-12T07:57:28.356Z,19.53
2018-05-12T07:58:28.338Z,19.59
2018-05-12T07:59:28.326Z,19.70
2018-05-12T08:00:28.311Z,19.67
2018-05-12T08:01:29.153Z,19.67
2018-05-12T08:02:28.278Z,19.70
2018-05-12T08:03:28.286Z,19.70
2018-05-12T08:04:28.255Z,19.74
2018-05-12T08:05:28.236Z,19.82
2018-05-12T08:06:28.222Z,19.78
2018-05-12T08:07:28.206Z,19.81
2018-05-12T08:08:28.236Z,19.93
2018-05-12T08:09:28.181Z,19.92
2018-05-12T08:10:28.161Z,19.96
2018-05-12T08:11:28.145Z,19.93
2018-05-12T08:12:28.130Z,19.99
2018-05-12T08:13:28.119Z,19.97
2018-05-12T08:14:28.107Z,20.04
2018-05-12T08:15:28.147Z,20.10
2018-05-12T08:16:28.096Z,20.11
2018-05-12T08:17:28.062Z,20.03
2018-05-12T08:18:28.043Z,20.15
2018-05-12T08:19:28.032Z,20.19
2018-05-12T08:20:28.013Z,20.18
2018-05-12T08:21:27.998Z,20.24
2018-05-12T08:22:28.031Z,20.29
2018-05-12T08:23:27.973Z,20.26
2018-05-12T08:24:28.012Z,20.33
2018-05-12T08:25:28.711Z,20.42
2018-05-12T08:26:27.940Z,20.36
2018-05-12T08:27:27.920Z,20.37
2018-05-12T08:28:27.955Z,20.44
2018-05-12T08:29:28.699Z,20.48
2018-05-12T08:30:27.915Z,20.52
2018-05-12T08:31:27.881Z,20.55
2018-05-12T08:32:27.841Z,20.56
2018-05-12T08:33:27.836Z,20.53
2018-05-12T08:34:27.812Z,20.60
2018-05-12T08:35:27.799Z,20.56
2018-05-12T08:36:27.835Z,20.64
2018-05-12T08:37:27.817Z,20.66
2018-05-12T08:38:27.811Z,20.60
2018-05-12T08:39:27.742Z,20.80
2018-05-12T08:40:27.776Z,20.71
2018-05-12T08:41:28.397Z,20.86
2018-05-12T08:42:27.702Z,20.83
2018-05-12T08:43:27.690Z,20.82
2018-05-12T08:44:27.686Z,20.86
2018-05-12T08:45:27.711Z,20.93
2018-05-12T08:46:27.644Z,20.92
2018-05-12T08:47:27.630Z,20.92
2018-05-12T08:48:27.615Z,20.95
2018-05-12T08:49:27.603Z,21.03
2018-05-12T08:50:27.585Z,21.04
2018-05-12T08:51:27.573Z,21.10
2018-05-12T08:52:27.582Z,21.10
2018-05-12T08:53:27.559Z,21.17
2018-05-12T08:54:27.528Z,21.20
2018-05-12T08:55:27.518Z,21.20
2018-05-12T08:56:27.504Z,21.19
2018-05-12T08:57:27.487Z,21.26
2018-05-12T08:58:27.474Z,21.29
2018-05-12T08:59:27.502Z,21.28
2018-05-12T09:00:27.447Z,21.32
2018-05-12T09:01:27.492Z,21.29
2018-05-12T09:02:27.420Z,21.38
2018-05-12T09:03:27.404Z,21.33
2018-05-12T09:04:27.390Z,21.37
2018-05-12T09:05:27.376Z,21.45
2018-05-12T09:06:27.426Z,21.48
2018-05-12T09:07:27.366Z,21.50
2018-05-12T09:08:27.334Z,21.62
2018-05-12T09:09:28.099Z,21.58
2018-05-12T09:10:27.316Z,21.58
2018-05-12T09:11:27.296Z,21.63
2018-05-12T09:12:27.280Z,21.56
2018-05-12T09:13:27.323Z,21.63
2018-05-12T09:14:27.253Z,21.68
2018-05-12T09:15:27.239Z,21.80
2018-05-12T09:16:27.282Z,21.77
2018-05-12T09:17:27.215Z,21.75
2018-05-12T09:18:27.197Z,21.84
2018-05-12T09:19:27.229Z,21.89
2018-05-12T09:20:28.217Z,21.84
2018-05-12T09:21:27.157Z,21.91
2018-05-12T09:22:27.149Z,21.89
2018-05-12T09:23:27.130Z,21.92
2018-05-12T09:24:27.116Z,21.92
2018-05-12T09:25:27.104Z,22.04
2018-05-12T09:26:27.137Z,22.06
2018-05-12T09:27:27.135Z,21.99
2018-05-12T09:28:27.067Z,22.00
2018-05-12T09:29:27.049Z,22.08
2018-05-12T09:30:27.038Z,22.08
2018-05-12T09:31:27.028Z,22.14
2018-05-12T09:32:27.013Z,22.08
2018-05-12T09:33:27.011Z,22.04
2018-05-12T09:34:27.032Z,22.07
2018-05-12T09:35:26.971Z,22.23
2018-05-12T09:36:26.957Z,22.23
2018-05-12T09:37:26.956Z,22.30
2018-05-12T09:38:26.930Z,22.34
2018-05-12T09:39:26.948Z,22.37
2018-05-12T09:40:26.902Z,22.49
2018-05-12T09:41:26.891Z,22.62
2018-05-12T09:42:26.988Z,22.74
2018-05-12T09:43:26.918Z,22.77
2018-05-12T09:44:26.852Z,22.89
2018-05-12T09:45:26.839Z,22.92
2018-05-12T09:46:26.878Z,22.96
2018-05-12T09:47:26.816Z,22.99
2018-05-12T09:48:26.800Z,23.04
2018-05-12T09:49:26.788Z,23.13
2018-05-12T09:50:26.789Z,23.16
2018-05-12T09:51:26.764Z,23.26
2018-05-12T09:52:26.793Z,23.23
2018-05-12T09:53:26.817Z,23.28
2018-05-12T09:54:26.731Z,23.33
2018-05-12T09:55:26.721Z,23.21
2018-05-12T09:56:26.697Z,23.29
2018-05-12T09:57:26.696Z,23.21
2018-05-12T09:58:26.676Z,23.21
2018-05-12T09:59:26.691Z,23.20
2018-05-12T10:00:26.663Z,23.28
2018-05-12T10:01:26.637Z,23.40
2018-05-12T10:02:26.626Z,23.33
2018-05-12T10:03:26.691Z,23.28
2018-05-12T10:04:26.601Z,23.32
2018-05-12T10:05:26.587Z,23.18
2018-05-12T10:06:26.574Z,23.18
2018-05-12T10:07:26.611Z,23.32
2018-05-12T10:08:26.572Z,23.29
2018-05-12T10:09:26.582Z,23.32
2018-05-12T10:10:26.540Z,23.45
2018-05-12T10:11:26.532Z,23.23
2018-05-12T10:12:26.502Z,23.32
2018-05-12T10:13:26.488Z,23.26
2018-05-12T10:14:26.521Z,23.20
2018-05-12T10:15:26.481Z,23.25
2018-05-12T10:16:26.454Z,23.20
2018-05-12T10:17:26.480Z,23.33
2018-05-12T10:18:26.446Z,23.64
2018-05-12T10:19:31.278Z,23.82
2018-05-12T10:20:26.411Z,24.16
2018-05-12T10:21:26.440Z,24.40
2018-05-12T10:22:26.398Z,24.59
2018-05-12T10:23:26.374Z,25.09
2018-05-12T10:24:26.363Z,25.44
2018-05-12T10:25:26.355Z,25.62
2018-05-12T10:26:26.394Z,26.04
2018-05-12T10:27:26.335Z,26.49
2018-05-12T10:28:27.253Z,27.00
2018-05-12T10:29:27.238Z,27.38
2018-05-12T10:30:26.315Z,27.58
2018-05-12T10:31:26.299Z,27.98
2018-05-12T10:32:26.884Z,27.58
2018-05-12T10:33:26.297Z,27.05
2018-05-12T10:34:26.347Z,27.20
2018-05-12T10:35:26.323Z,27.73
2018-05-12T10:36:26.262Z,28.65
2018-05-12T10:37:26.260Z,28.18
2018-05-12T10:38:26.251Z,27.64
2018-05-12T10:39:26.267Z,27.55
2018-05-12T10:40:26.307Z,28.68
2018-05-12T10:41:26.255Z,29.50
2018-05-12T10:42:27.249Z,30.08
2018-05-12T10:43:26.220Z,30.65
2018-05-12T10:44:26.265Z,31.18
2018-05-12T10:45:26.249Z,31.69
2018-05-12T10:46:26.207Z,32.08
2018-05-12T10:47:26.233Z,32.44
2018-05-12T10:48:26.192Z,32.79
2018-05-12T10:49:26.189Z,32.88
2018-05-12T10:50:26.213Z,32.41
2018-05-12T10:51:26.228Z,32.81
2018-05-12T10:52:26.233Z,33.15
2018-05-12T10:53:26.701Z,33.13
2018-05-12T10:54:26.169Z,33.31
2018-05-12T10:55:26.169Z,33.51
2018-05-12T10:56:26.164Z,33.88
2018-05-12T10:57:26.165Z,34.21
2018-05-12T10:58:26.161Z,34.35
2018-05-12T10:59:27.158Z,34.53
2018-05-12T11:00:26.153Z,34.82
2018-05-12T11:01:26.154Z,34.96
2018-05-12T11:02:26.150Z,35.19
2018-05-12T11:03:26.145Z,35.20
2018-05-12T11:04:26.144Z,35.31
2018-05-12T11:05:26.144Z,35.41
2018-05-12T11:06:26.148Z,35.47
2018-05-12T11:07:26.144Z,35.59
2018-05-12T11:08:26.138Z,35.49
2018-05-12T11:09:26.134Z,35.54
2018-05-12T11:10:26.135Z,35.44
2018-05-12T11:11:26.133Z,35.04
2018-05-12T11:12:26.132Z,35.10
2018-05-12T11:13:26.132Z,35.22
2018-05-12T11:14:26.134Z,35.39
2018-05-12T11:15:26.131Z,35.54
2018-05-12T11:16:26.131Z,35.74
2018-05-12T11:17:26.138Z,35.54
2018-05-12T11:18:26.129Z,35.42
2018-05-12T11:19:26.134Z,35.52
2018-05-12T11:20:26.128Z,35.52
2018-05-12T11:21:26.126Z,35.30
2018-05-12T11:22:26.127Z,35.47
2018-05-12T11:23:26.125Z,35.47
2018-05-12T11:24:26.126Z,35.49
2018-05-12T11:25:26.123Z,35.59
2018-05-12T11:26:26.128Z,35.68
2018-05-12T11:27:26.130Z,35.79
2018-05-12T11:28:27.040Z,35.87
2018-05-12T11:29:26.124Z,35.82
2018-05-12T11:30:26.126Z,35.50
2018-05-12T11:31:26.122Z,35.31
2018-05-12T11:32:26.129Z,34.75
2018-05-12T11:33:26.124Z,35.03
2018-05-12T11:34:26.126Z,35.16
2018-05-12T11:35:26.122Z,35.30
2018-05-12T11:36:26.123Z,35.56
2018-05-12T11:37:26.118Z,35.72
2018-05-12T11:38:26.120Z,35.78
2018-05-12T11:39:26.121Z,35.79
2018-05-12T11:40:26.116Z,35.74
2018-05-12T11:41:26.120Z,35.50
2018-05-12T11:42:26.120Z,34.70
2018-05-12T11:43:26.151Z,34.96
2018-05-12T11:44:26.149Z,34.83
2018-05-12T11:45:26.117Z,35.13
2018-05-12T11:46:26.789Z,35.27
2018-05-12T11:47:26.118Z,33.84
2018-05-12T11:48:26.113Z,34.41
2018-05-12T11:49:26.114Z,34.81
2018-05-12T11:50:26.114Z,34.94
2018-05-12T11:51:26.161Z,35.05
2018-05-12T11:52:26.113Z,35.31
2018-05-12T11:53:26.111Z,35.47
2018-05-12T11:54:26.111Z,34.88
2018-05-12T11:55:26.114Z,35.16
2018-05-12T11:56:26.111Z,35.41
2018-05-12T11:57:26.110Z,35.56
2018-05-12T11:58:26.186Z,35.56
2018-05-12T11:59:26.125Z,35.76
2018-05-12T12:00:26.119Z,35.79
2018-05-12T12:01:26.110Z,35.81
2018-05-12T12:02:26.122Z,35.61
2018-05-12T12:03:26.110Z,35.44
2018-05-12T12:04:26.108Z,35.18
2018-05-12T12:05:26.107Z,34.96
2018-05-12T12:06:26.108Z,34.62
2018-05-12T12:07:26.107Z,34.48
2018-05-12T12:08:26.107Z,34.46
2018-05-12T12:09:26.108Z,34.55
2018-05-12T12:10:26.110Z,34.43
2018-05-12T12:11:26.117Z,34.47
2018-05-12T12:12:26.105Z,34.56
2018-05-12T12:13:26.115Z,34.51
2018-05-12T12:14:26.103Z,34.51
2018-05-12T12:15:26.106Z,34.62
2018-05-12T12:16:26.100Z,34.62
2018-05-12T12:17:26.102Z,34.46
2018-05-12T12:18:26.099Z,34.35
2018-05-12T12:19:26.097Z,33.44
2018-05-12T12:20:26.101Z,32.72
2018-05-12T12:21:26.095Z,32.67
2018-05-12T12:22:26.093Z,32.67
2018-05-12T12:23:26.096Z,32.78
2018-05-12T12:24:26.093Z,32.86
2018-05-12T12:25:26.093Z,32.91
2018-05-12T12:26:26.088Z,33.01
2018-05-12T12:27:26.092Z,32.93
2018-05-12T12:28:26.080Z,32.85
2018-05-12T12:29:26.160Z,32.61
2018-05-12T12:30:26.079Z,32.44
2018-05-12T12:31:26.093Z,32.85
2018-05-12T12:32:26.074Z,33.16
2018-05-12T12:33:26.214Z,33.26
2018-05-12T12:34:26.068Z,33.36
2018-05-12T12:35:26.082Z,33.44
2018-05-12T12:36:26.065Z,33.32
2018-05-12T12:37:26.062Z,33.15
2018-05-12T12:38:26.067Z,32.85
2018-05-12T12:39:26.090Z,32.64
2018-05-12T12:40:26.052Z,32.56
2018-05-12T12:41:26.054Z,32.72
2018-05-12T12:42:26.048Z,33.15
2018-05-12T12:43:26.046Z,33.48
2018-05-12T12:44:26.041Z,33.82
2018-05-12T12:45:26.045Z,34.22
2018-05-12T12:46:26.036Z,34.69
2018-05-12T12:47:26.035Z,35.22
2018-05-12T12:48:26.032Z,35.61
2018-05-12T12:49:26.027Z,35.97
2018-05-12T12:50:26.028Z,35.88
2018-05-12T12:51:26.022Z,36.28
2018-05-12T12:52:26.020Z,36.41